sensor_id;sensor_type;location;lat;lon;timestamp;pressure;altitude;pressure_sealevel;temperature;humidity
64298;BME280;50639;53.270;7.956;2023-03-22T00:00:55;100850.25;;;9.53;82.32
64298;BME280;50639;53.270;7.956;2023-03-22T00:03:22;100848.22;;;9.55;81.34
64298;BME280;50639;53.270;7.956;2023-03-22T00:05:48;100849.97;;;9.48;82.29
64298;BME280;50639;53.270;7.956;2023-03-22T00:08:14;100851.91;;;9.54;81.73
64298;BME280;50639;53.270;7.956;2023-03-22T00:10:40;100847.06;;;9.58;81.70
64298;BME280;50639;53.270;7.956;2023-03-22T00:13:08;100839.06;;;9.58;81.68
64298;BME280;50639;53.270;7.956;2023-03-22T00:15:34;100837.09;;;9.52;81.69
64298;BME280;50639;53.270;7.956;2023-03-22T00:18:01;100836.66;;;9.48;82.41
64298;BME280;50639;53.270;7.956;2023-03-22T00:20:31;100828.56;;;9.56;81.77
64298;BME280;50639;53.270;7.956;2023-03-22T00:22:59;100829.66;;;9.62;81.79
64298;BME280;50639;53.270;7.956;2023-03-22T00:25:24;100822.41;;;9.56;82.63
64298;BME280;50639;53.270;7.956;2023-03-22T00:27:50;100815.22;;;9.56;81.82
64298;BME280;50639;53.270;7.956;2023-03-22T00:30:16;100815.03;;;9.72;81.97
64298;BME280;50639;53.270;7.956;2023-03-22T00:32:43;100816.13;;;9.78;81.51
64298;BME280;50639;53.270;7.956;2023-03-22T00:35:09;100818.97;;;9.76;81.38
64298;BME280;50639;53.270;7.956;2023-03-22T00:37:36;100813.63;;;9.76;81.97
64298;BME280;50639;53.270;7.956;2023-03-22T00:40:07;100816.94;;;9.78;81.11
64298;BME280;50639;53.270;7.956;2023-03-22T00:42:35;100816.03;;;9.86;81.24
64298;BME280;50639;53.270;7.956;2023-03-22T00:45:02;100803.81;;;9.92;81.09
64298;BME280;50639;53.270;7.956;2023-03-22T00:47:28;100805.47;;;9.93;80.65
64298;BME280;50639;53.270;7.956;2023-03-22T00:49:53;100804.44;;;9.94;80.77
64298;BME280;50639;53.270;7.956;2023-03-22T00:52:19;100799.19;;;9.86;80.97
64298;BME280;50639;53.270;7.956;2023-03-22T00:54:45;100794.91;;;9.85;80.58
64298;BME280;50639;53.270;7.956;2023-03-22T00:57:12;100787.03;;;9.98;80.91
64298;BME280;50639;53.270;7.956;2023-03-22T00:59:39;100779.03;;;9.98;81.17
64298;BME280;50639;53.270;7.956;2023-03-22T01:02:05;100783.88;;;10.09;79.89
64298;BME280;50639;53.270;7.956;2023-03-22T01:04:32;100781.78;;;10.04;80.28
64298;BME280;50639;53.270;7.956;2023-03-22T01:07:00;100784.72;;;10.09;79.86
64298;BME280;50639;53.270;7.956;2023-03-22T01:09:29;100776.28;;;9.91;81.23
64298;BME280;50639;53.270;7.956;2023-03-22T01:11:56;100766.97;;;10.02;80.99
64298;BME280;50639;53.270;7.956;2023-03-22T01:14:26;100774.59;;;10.05;81.16
64298;BME280;50639;53.270;7.956;2023-03-22T01:16:52;100774.88;;;10.10;80.60
64298;BME280;50639;53.270;7.956;2023-03-22T01:19:22;100770.78;;;10.14;79.99
64298;BME280;50639;53.270;7.956;2023-03-22T01:21:49;100774.41;;;10.06;81.12
64298;BME280;50639;53.270;7.956;2023-03-22T01:24:15;100770.97;;;10.12;80.12
64298;BME280;50639;53.270;7.956;2023-03-22T01:26:41;100772.56;;;10.07;80.59
64298;BME280;50639;53.270;7.956;2023-03-22T01:29:07;100773.22;;;10.09;80.79
64298;BME280;50639;53.270;7.956;2023-03-22T01:31:33;100767.69;;;10.10;80.46
64298;BME280;50639;53.270;7.956;2023-03-22T01:33:59;100763.09;;;10.19;79.73
64298;BME280;50639;53.270;7.956;2023-03-22T01:36:26;100773.84;;;10.26;79.91
64298;BME280;50639;53.270;7.956;2023-03-22T01:38:51;100766.47;;;10.28;79.65
64298;BME280;50639;53.270;7.956;2023-03-22T01:41:18;100767.72;;;10.32;79.30
64298;BME280;50639;53.270;7.956;2023-03-22T01:43:44;100764.88;;;10.33;78.52
64298;BME280;50639;53.270;7.956;2023-03-22T01:46:10;100762.44;;;10.38;78.80
64298;BME280;50639;53.270;7.956;2023-03-22T01:48:41;100754.00;;;10.35;77.68
64298;BME280;50639;53.270;7.956;2023-03-22T01:51:16;100756.09;;;10.39;78.32
64298;BME280;50639;53.270;7.956;2023-03-22T01:54:07;100749.78;;;10.47;76.77
64298;BME280;50639;53.270;7.956;2023-03-22T01:56:36;100752.91;;;10.50;76.76
64298;BME280;50639;53.270;7.956;2023-03-22T01:59:05;100743.25;;;10.49;76.01
64298;BME280;50639;53.270;7.956;2023-03-22T02:01:49;100747.34;;;10.45;76.86
64298;BME280;50639;53.270;7.956;2023-03-22T02:04:18;100752.28;;;10.48;76.38
64298;BME280;50639;53.270;7.956;2023-03-22T02:06:52;100747.94;;;10.47;76.70
64298;BME280;50639;53.270;7.956;2023-03-22T02:09:22;100737.28;;;10.47;77.24
64298;BME280;50639;53.270;7.956;2023-03-22T02:12:16;100740.34;;;10.44;76.75
64298;BME280;50639;53.270;7.956;2023-03-22T02:21:27;100725.53;;;10.42;76.75
64298;BME280;50639;53.270;7.956;2023-03-22T02:29:44;100723.03;;;10.40;76.28
64298;BME280;50639;53.270;7.956;2023-03-22T02:32:22;100726.72;;;10.39;76.70
64298;BME280;50639;53.270;7.956;2023-03-22T02:41:10;100713.50;;;10.31;76.36
64298;BME280;50639;53.270;7.956;2023-03-22T02:46:34;100708.03;;;10.39;75.74
64298;BME280;50639;53.270;7.956;2023-03-22T02:52:10;100696.66;;;10.31;76.05
64298;BME280;50639;53.270;7.956;2023-03-22T02:54:44;100694.06;;;10.37;75.67
64298;BME280;50639;53.270;7.956;2023-03-22T02:57:18;100694.69;;;10.39;75.37
64298;BME280;50639;53.270;7.956;2023-03-22T02:59:47;100689.94;;;10.35;75.64
64298;BME280;50639;53.270;7.956;2023-03-22T03:02:15;100690.56;;;10.37;75.55
64298;BME280;50639;53.270;7.956;2023-03-22T03:04:45;100688.84;;;10.29;75.68
64298;BME280;50639;53.270;7.956;2023-03-22T03:07:15;100689.94;;;10.35;74.77
64298;BME280;50639;53.270;7.956;2023-03-22T03:09:42;100696.03;;;10.29;76.03
64298;BME280;50639;53.270;7.956;2023-03-22T03:12:19;100694.44;;;10.34;75.01
64298;BME280;50639;53.270;7.956;2023-03-22T03:14:45;100689.47;;;10.31;75.38
64298;BME280;50639;53.270;7.956;2023-03-22T03:17:21;100694.63;;;10.33;75.00
64298;BME280;50639;53.270;7.956;2023-03-22T03:20:00;100695.09;;;10.36;74.79
64298;BME280;50639;53.270;7.956;2023-03-22T03:25:35;100686.44;;;10.34;75.09
64298;BME280;50639;53.270;7.956;2023-03-22T03:28:11;100684.59;;;10.35;74.93
64298;BME280;50639;53.270;7.956;2023-03-22T03:30:48;100679.44;;;10.33;74.12
64298;BME280;50639;53.270;7.956;2023-03-22T03:33:19;100673.22;;;10.26;74.54
64298;BME280;50639;53.270;7.956;2023-03-22T03:36:08;100674.47;;;10.30;74.54
64298;BME280;50639;53.270;7.956;2023-03-22T03:38:38;100679.44;;;10.33;74.59
64298;BME280;50639;53.270;7.956;2023-03-22T03:41:08;100676.00;;;10.39;73.65
64298;BME280;50639;53.270;7.956;2023-03-22T03:43:36;100662.78;;;10.31;74.59
64298;BME280;50639;53.270;7.956;2023-03-22T03:46:05;100666.47;;;10.30;73.69
64298;BME280;50639;53.270;7.956;2023-03-22T03:48:32;100664.44;;;10.32;74.77
64298;BME280;50639;53.270;7.956;2023-03-22T03:51:00;100660.88;;;10.25;74.02
64298;BME280;50639;53.270;7.956;2023-03-22T03:53:27;100665.84;;;10.28;74.69
64298;BME280;50639;53.270;7.956;2023-03-22T03:55:53;100659.59;;;10.21;74.57
64298;BME280;50639;53.270;7.956;2023-03-22T03:58:19;100662.84;;;10.16;74.66
64298;BME280;50639;53.270;7.956;2023-03-22T04:00:46;100661.25;;;10.22;74.94
64298;BME280;50639;53.270;7.956;2023-03-22T04:03:15;100657.34;;;10.18;74.52
64298;BME280;50639;53.270;7.956;2023-03-22T04:06:01;100656.50;;;10.17;74.23
64298;BME280;50639;53.270;7.956;2023-03-22T04:08:31;100655.31;;;10.20;74.11
64298;BME280;50639;53.270;7.956;2023-03-22T04:10:57;100660.00;;;10.18;74.31
64298;BME280;50639;53.270;7.956;2023-03-22T04:13:22;100660.84;;;10.18;74.58
64298;BME280;50639;53.270;7.956;2023-03-22T04:15:54;100655.31;;;10.20;74.20
64298;BME280;50639;53.270;7.956;2023-03-22T04:18:22;100653.06;;;10.24;75.28
64298;BME280;50639;53.270;7.956;2023-03-22T04:20:47;100652.88;;;10.25;74.16
64298;BME280;50639;53.270;7.956;2023-03-22T04:23:15;100654.91;;;10.23;74.64
64298;BME280;50639;53.270;7.956;2023-03-22T04:25:42;100655.00;;;10.15;74.84
64298;BME280;50639;53.270;7.956;2023-03-22T04:28:16;100649.56;;;10.23;74.88
64298;BME280;50639;53.270;7.956;2023-03-22T04:30:45;100646.47;;;10.20;74.55
64298;BME280;50639;53.270;7.956;2023-03-22T04:33:13;100647.13;;;10.07;75.75
64298;BME280;50639;53.270;7.956;2023-03-22T04:35:59;100641.94;;;9.99;75.95
64298;BME280;50639;53.270;7.956;2023-03-22T04:38:32;100633.56;;;10.02;75.78
64298;BME280;50639;53.270;7.956;2023-03-22T04:40:58;100636.09;;;10.10;74.87
64298;BME280;50639;53.270;7.956;2023-03-22T04:43:39;100636.47;;;10.07;75.05
64298;BME280;50639;53.270;7.956;2023-03-22T04:46:08;100635.41;;;10.01;75.80
64298;BME280;50639;53.270;7.956;2023-03-22T04:48:41;100632.09;;;9.99;76.13
64298;BME280;50639;53.270;7.956;2023-03-22T04:51:10;100622.06;;;10.01;75.96
64298;BME280;50639;53.270;7.956;2023-03-22T04:53:41;100634.25;;;9.89;76.30
64298;BME280;50639;53.270;7.956;2023-03-22T04:56:10;100627.25;;;9.88;76.65
64298;BME280;50639;53.270;7.956;2023-03-22T04:58:38;100627.25;;;9.88;76.48
64298;BME280;50639;53.270;7.956;2023-03-22T05:01:06;100628.91;;;9.89;76.47
64298;BME280;50639;53.270;7.956;2023-03-22T05:03:32;100636.66;;;9.84;76.95
64298;BME280;50639;53.270;7.956;2023-03-22T05:05:59;100625.41;;;9.89;76.58
64298;BME280;50639;53.270;7.956;2023-03-22T05:08:34;100620.72;;;9.91;76.34
64298;BME280;50639;53.270;7.956;2023-03-22T05:11:07;100616.94;;;9.85;77.62
64298;BME280;50639;53.270;7.956;2023-03-22T05:13:33;100613.84;;;9.81;76.84
64298;BME280;50639;53.270;7.956;2023-03-22T05:15:59;100616.94;;;9.85;76.60
64298;BME280;50639;53.270;7.956;2023-03-22T05:18:35;100613.28;;;9.86;76.98
64298;BME280;50639;53.270;7.956;2023-03-22T05:21:13;100606.69;;;9.82;77.39
64298;BME280;50639;53.270;7.956;2023-03-22T05:23:42;100598.88;;;9.80;76.72
64298;BME280;50639;53.270;7.956;2023-03-22T05:26:11;100594.34;;;9.81;77.19
64298;BME280;50639;53.270;7.956;2023-03-22T05:28:42;100601.72;;;9.79;76.94
64298;BME280;50639;53.270;7.956;2023-03-22T05:31:17;100604.66;;;9.84;76.07
64298;BME280;50639;53.270;7.956;2023-03-22T05:33:56;100587.09;;;9.96;77.25
64298;BME280;50639;53.270;7.956;2023-03-22T05:36:24;100586.16;;;9.82;76.77
64298;BME280;50639;53.270;7.956;2023-03-22T05:39:25;100591.00;;;9.94;76.65
64298;BME280;50639;53.270;7.956;2023-03-22T05:41:51;100589.06;;;9.88;76.98
64298;BME280;50639;53.270;7.956;2023-03-22T05:44:17;100575.91;;;9.86;77.08
64298;BME280;50639;53.270;7.956;2023-03-22T05:47:01;100573.38;;;9.99;76.71
64298;BME280;50639;53.270;7.956;2023-03-22T05:49:31;100570.84;;;9.91;76.72
64298;BME280;50639;53.270;7.956;2023-03-22T05:51:57;100576.47;;;10.03;76.63
64298;BME280;50639;53.270;7.956;2023-03-22T05:54:29;100576.44;;;9.96;76.43
64298;BME280;50639;53.270;7.956;2023-03-22T05:56:56;100576.09;;;10.06;76.52
64298;BME280;50639;53.270;7.956;2023-03-22T05:59:22;100573.44;;;10.06;76.55
64298;BME280;50639;53.270;7.956;2023-03-22T06:01:48;100571.13;;;10.03;76.98
64298;BME280;50639;53.270;7.956;2023-03-22T06:04:20;100570.56;;;10.07;76.74
64298;BME280;50639;53.270;7.956;2023-03-22T06:06:53;100571.63;;;10.13;77.48
64298;BME280;50639;53.270;7.956;2023-03-22T06:09:32;100561.50;;;10.02;77.00
64298;BME280;50639;53.270;7.956;2023-03-22T06:11:58;100566.06;;;10.08;76.47
64298;BME280;50639;53.270;7.956;2023-03-22T06:14:24;100562.75;;;10.06;77.01
64298;BME280;50639;53.270;7.956;2023-03-22T06:17:22;100566.06;;;10.08;77.37
64298;BME280;50639;53.270;7.956;2023-03-22T06:19:49;100564.44;;;10.13;76.74
64298;BME280;50639;53.270;7.956;2023-03-22T06:22:16;100554.41;;;10.15;76.75
64298;BME280;50639;53.270;7.956;2023-03-22T06:24:44;100563.63;;;10.13;77.68
64298;BME280;50639;53.270;7.956;2023-03-22T06:27:15;100554.41;;;10.15;77.22
64298;BME280;50639;53.270;7.956;2023-03-22T06:29:42;100554.91;;;10.19;77.48
64298;BME280;50639;53.270;7.956;2023-03-22T06:32:08;100554.75;;;10.27;76.98
64298;BME280;50639;53.270;7.956;2023-03-22T06:34:34;100546.56;;;10.29;77.19
64298;BME280;50639;53.270;7.956;2023-03-22T06:37:00;100549.41;;;10.27;77.85
64298;BME280;50639;53.270;7.956;2023-03-22T06:39:32;100559.28;;;10.33;77.16
64298;BME280;50639;53.270;7.956;2023-03-22T06:41:58;100561.19;;;10.39;77.35
64298;BME280;50639;53.270;7.956;2023-03-22T06:44:23;100556.81;;;10.32;77.63
64298;BME280;50639;53.270;7.956;2023-03-22T06:46:49;100552.56;;;10.37;77.53
64298;BME280;50639;53.270;7.956;2023-03-22T06:49:50;100555.06;;;10.45;77.65
64298;BME280;50639;53.270;7.956;2023-03-22T06:52:21;100545.22;;;10.46;77.68
64298;BME280;50639;53.270;7.956;2023-03-22T06:54:49;100539.06;;;10.45;77.89
64298;BME280;50639;53.270;7.956;2023-03-22T06:57:15;100536.56;;;10.44;78.09
64298;BME280;50639;53.270;7.956;2023-03-22T06:59:40;100537.44;;;10.51;77.55
64298;BME280;50639;53.270;7.956;2023-03-22T07:02:10;100545.25;;;10.52;77.24
64298;BME280;50639;53.270;7.956;2023-03-22T07:04:36;100538.25;;;10.51;77.79
64298;BME280;50639;53.270;7.956;2023-03-22T07:07:01;100536.44;;;10.59;77.27
64298;BME280;50639;53.270;7.956;2023-03-22T07:09:27;100530.53;;;10.63;76.77
64298;BME280;50639;53.270;7.956;2023-03-22T07:11:56;100530.97;;;10.73;76.40
64298;BME280;50639;53.270;7.956;2023-03-22T07:14:22;100540.06;;;10.85;76.83
64298;BME280;50639;53.270;7.956;2023-03-22T07:17:05;100530.56;;;10.76;76.61
64298;BME280;50639;53.270;7.956;2023-03-22T07:19:31;100531.50;;;10.97;75.76
64298;BME280;50639;53.270;7.956;2023-03-22T07:22:00;100533.97;;;10.98;76.22
64298;BME280;50639;53.270;7.956;2023-03-22T07:24:26;100529.47;;;11.12;75.16
64298;BME280;50639;53.270;7.956;2023-03-22T07:26:52;100531.16;;;11.19;75.07
64298;BME280;50639;53.270;7.956;2023-03-22T07:29:22;100525.78;;;11.13;75.54
64298;BME280;50639;53.270;7.956;2023-03-22T07:31:48;100530.75;;;11.22;75.53
64298;BME280;50639;53.270;7.956;2023-03-22T07:34:33;100525.84;;;11.32;74.84
64298;BME280;50639;53.270;7.956;2023-03-22T07:37:09;100527.25;;;11.28;75.17
64298;BME280;50639;53.270;7.956;2023-03-22T07:39:35;100532.22;;;11.38;74.62
64298;BME280;50639;53.270;7.956;2023-03-22T07:42:01;100521.09;;;11.28;74.64
64298;BME280;50639;53.270;7.956;2023-03-22T07:44:46;100508.72;;;11.20;75.18
64298;BME280;50639;53.270;7.956;2023-03-22T07:47:16;100519.66;;;11.32;74.97
64298;BME280;50639;53.270;7.956;2023-03-22T07:50:02;100507.13;;;11.32;74.74
64298;BME280;50639;53.270;7.956;2023-03-22T07:52:31;100510.41;;;11.35;74.34
64298;BME280;50639;53.270;7.956;2023-03-22T07:54:57;100495.19;;;11.35;74.76
64298;BME280;50639;53.270;7.956;2023-03-22T07:57:22;100497.25;;;11.40;73.86
64298;BME280;50639;53.270;7.956;2023-03-22T07:59:54;100502.00;;;11.51;73.91
64298;BME280;50639;53.270;7.956;2023-03-22T08:02:23;100511.13;;;11.76;73.47
64298;BME280;50639;53.270;7.956;2023-03-22T08:04:51;100497.72;;;11.96;72.41
64298;BME280;50639;53.270;7.956;2023-03-22T08:07:39;100495.25;;;11.94;72.41
64298;BME280;50639;53.270;7.956;2023-03-22T08:10:05;100495.84;;;11.96;72.14
64298;BME280;50639;53.270;7.956;2023-03-22T08:12:33;100497.50;;;12.04;72.07
64298;BME280;50639;53.270;7.956;2023-03-22T08:15:09;100505.97;;;11.94;71.65
64298;BME280;50639;53.270;7.956;2023-03-22T08:17:35;100506.34;;;12.18;70.65
64298;BME280;50639;53.270;7.956;2023-03-22T08:20:01;100506.09;;;12.32;70.73
64298;BME280;50639;53.270;7.956;2023-03-22T08:22:43;100500.78;;;12.19;71.15
64298;BME280;50639;53.270;7.956;2023-03-22T08:25:17;100504.72;;;12.10;71.16
64298;BME280;50639;53.270;7.956;2023-03-22T08:27:43;100498.53;;;11.96;71.83
64298;BME280;50639;53.270;7.956;2023-03-22T08:30:09;100500.81;;;11.99;70.96
64298;BME280;50639;53.270;7.956;2023-03-22T08:32:35;100503.69;;;12.11;70.83
64298;BME280;50639;53.270;7.956;2023-03-22T08:35:04;100505.72;;;12.22;70.68
64298;BME280;50639;53.270;7.956;2023-03-22T08:37:29;100503.66;;;12.31;70.69
64298;BME280;50639;53.270;7.956;2023-03-22T08:39:55;100491.75;;;12.14;70.41
64298;BME280;50639;53.270;7.956;2023-03-22T08:42:29;100505.28;;;12.25;70.10
64298;BME280;50639;53.270;7.956;2023-03-22T08:44:55;100509.03;;;12.18;70.51
64298;BME280;50639;53.270;7.956;2023-03-22T08:47:24;100498.31;;;12.11;70.96
64298;BME280;50639;53.270;7.956;2023-03-22T08:49:55;100493.78;;;12.18;70.33
64298;BME280;50639;53.270;7.956;2023-03-22T08:52:27;100498.69;;;12.34;69.37
64298;BME280;50639;53.270;7.956;2023-03-22T08:55:13;100499.72;;;12.33;69.12
64298;BME280;50639;53.270;7.956;2023-03-22T08:57:53;100481.59;;;12.35;68.61
64298;BME280;50639;53.270;7.956;2023-03-22T09:01:02;100489.16;;;12.52;68.69
64298;BME280;50639;53.270;7.956;2023-03-22T09:03:46;100479.91;;;12.48;68.23
64298;BME280;50639;53.270;7.956;2023-03-22T09:06:12;100483.59;;;12.53;67.47
64298;BME280;50639;53.270;7.956;2023-03-22T09:08:40;100486.44;;;12.58;67.77
64298;BME280;50639;53.270;7.956;2023-03-22T09:11:11;100483.66;;;12.40;67.87
64298;BME280;50639;53.270;7.956;2023-03-22T09:13:37;100488.31;;;12.64;67.72
64298;BME280;50639;53.270;7.956;2023-03-22T09:16:04;100478.78;;;12.68;66.90
64298;BME280;50639;53.270;7.956;2023-03-22T09:18:31;100495.69;;;12.69;66.52
64298;BME280;50639;53.270;7.956;2023-03-22T09:21:01;100485.41;;;12.59;67.06
64298;BME280;50639;53.270;7.956;2023-03-22T09:23:36;100495.66;;;12.75;66.90
64298;BME280;50639;53.270;7.956;2023-03-22T09:26:04;100488.34;;;12.51;66.35
64298;BME280;50639;53.270;7.956;2023-03-22T09:28:30;100481.97;;;12.46;66.43
64298;BME280;50639;53.270;7.956;2023-03-22T09:31:03;100494.97;;;12.35;66.60
64298;BME280;50639;53.270;7.956;2023-03-22T09:33:31;100481.16;;;12.32;65.41
64298;BME280;50639;53.270;7.956;2023-03-22T09:35:57;100486.53;;;12.32;66.41
64298;BME280;50639;53.270;7.956;2023-03-22T09:38:24;100487.13;;;12.40;65.41
64298;BME280;50639;53.270;7.956;2023-03-22T09:40:55;100478.44;;;12.52;65.72
64298;BME280;50639;53.270;7.956;2023-03-22T09:43:34;100484.81;;;12.57;64.75
64298;BME280;50639;53.270;7.956;2023-03-22T09:46:02;100479.38;;;12.77;64.63
64298;BME280;50639;53.270;7.956;2023-03-22T09:48:34;100476.84;;;12.89;64.62
64298;BME280;50639;53.270;7.956;2023-03-22T09:51:04;100473.03;;;13.09;63.72
64298;BME280;50639;53.270;7.956;2023-03-22T09:53:31;100454.88;;;13.18;62.66
64298;BME280;50639;53.270;7.956;2023-03-22T09:56:00;100469.59;;;13.34;62.18
64298;BME280;50639;53.270;7.956;2023-03-22T09:58:32;100478.16;;;13.49;62.28
64298;BME280;50639;53.270;7.956;2023-03-22T10:01:08;100476.28;;;13.49;62.29
64298;BME280;50639;53.270;7.956;2023-03-22T10:03:52;100457.63;;;13.61;62.75
64298;BME280;50639;53.270;7.956;2023-03-22T10:06:23;100446.41;;;13.71;60.51
64298;BME280;50639;53.270;7.956;2023-03-22T10:09:21;100444.97;;;13.68;60.76
64298;BME280;50639;53.270;7.956;2023-03-22T10:12:00;100450.47;;;13.80;60.52
64298;BME280;50639;53.270;7.956;2023-03-22T10:14:35;100459.59;;;13.97;60.27
64298;BME280;50639;53.270;7.956;2023-03-22T10:17:08;100451.25;;;14.05;60.46
64298;BME280;50639;53.270;7.956;2023-03-22T10:19:45;100444.66;;;14.01;59.75
64298;BME280;50639;53.270;7.956;2023-03-22T10:22:16;100448.69;;;13.92;59.27
64298;BME280;50639;53.270;7.956;2023-03-22T10:24:45;100444.94;;;13.93;59.05
64298;BME280;50639;53.270;7.956;2023-03-22T10:27:18;100448.69;;;13.92;59.56
64298;BME280;50639;53.270;7.956;2023-03-22T10:29:58;100453.84;;;13.93;58.42
64298;BME280;50639;53.270;7.956;2023-03-22T10:34:54;100460.06;;;14.12;58.60
64298;BME280;50639;53.270;7.956;2023-03-22T10:37:23;100451.16;;;13.93;58.89
64298;BME280;50639;53.270;7.956;2023-03-22T10:39:54;100442.22;;;13.75;60.12
64298;BME280;50639;53.270;7.956;2023-03-22T10:42:23;100447.59;;;13.75;59.83
64298;BME280;50639;53.270;7.956;2023-03-22T10:44:53;100461.22;;;13.73;59.66
64298;BME280;50639;53.270;7.956;2023-03-22T10:47:34;100456.53;;;13.69;60.23
64298;BME280;50639;53.270;7.956;2023-03-22T10:50:04;100465.13;;;13.77;59.48
64298;BME280;50639;53.270;7.956;2023-03-22T10:52:48;100468.63;;;13.78;60.02
64298;BME280;50639;53.270;7.956;2023-03-22T10:55:16;100458.41;;;13.68;59.70
64298;BME280;50639;53.270;7.956;2023-03-22T10:58:04;100454.13;;;13.61;59.96
64298;BME280;50639;53.270;7.956;2023-03-22T11:00:34;100465.06;;;13.59;60.91
64298;BME280;50639;53.270;7.956;2023-03-22T11:03:00;100469.84;;;13.57;62.21
64298;BME280;50639;53.270;7.956;2023-03-22T11:05:28;100447.75;;;13.55;63.39
64298;BME280;50639;53.270;7.956;2023-03-22T11:07:55;100466.91;;;13.34;63.25
64298;BME280;50639;53.270;7.956;2023-03-22T11:10:30;100475.88;;;13.21;63.66
64298;BME280;50639;53.270;7.956;2023-03-22T11:15:40;100480.09;;;12.97;65.57
64298;BME280;50639;53.270;7.956;2023-03-22T11:18:10;100470.03;;;12.93;65.10
64298;BME280;50639;53.270;7.956;2023-03-22T11:20:40;100474.94;;;12.96;65.28
64298;BME280;50639;53.270;7.956;2023-03-22T11:23:06;100471.03;;;12.98;65.33
64298;BME280;50639;53.270;7.956;2023-03-22T11:25:37;100476.81;;;12.95;66.44
64298;BME280;50639;53.270;7.956;2023-03-22T11:28:16;100460.09;;;12.93;64.67
64298;BME280;50639;53.270;7.956;2023-03-22T11:33:22;100477.00;;;12.94;65.30
64298;BME280;50639;53.270;7.956;2023-03-22T11:36:14;100478.53;;;12.83;65.64
64298;BME280;50639;53.270;7.956;2023-03-22T11:38:41;100481.22;;;12.76;66.03
64298;BME280;50639;53.270;7.956;2023-03-22T11:41:19;100484.72;;;12.77;66.03
64298;BME280;50639;53.270;7.956;2023-03-22T11:43:48;100486.16;;;12.79;66.37
64298;BME280;50639;53.270;7.956;2023-03-22T11:46:16;100479.41;;;12.70;66.95
64298;BME280;50639;53.270;7.956;2023-03-22T11:48:45;100473.63;;;12.67;67.04
64298;BME280;50639;53.270;7.956;2023-03-22T11:51:17;100456.59;;;12.55;66.91
64298;BME280;50639;53.270;7.956;2023-03-22T11:54:09;100461.38;;;12.33;68.88
64298;BME280;50639;53.270;7.956;2023-03-22T11:56:46;100466.53;;;12.48;68.01
64298;BME280;50639;53.270;7.956;2023-03-22T11:59:26;100484.63;;;12.52;69.36
64298;BME280;50639;53.270;7.956;2023-03-22T12:02:19;100484.81;;;12.51;68.55
64298;BME280;50639;53.270;7.956;2023-03-22T12:05:16;100455.44;;;12.31;68.82
64298;BME280;50639;53.270;7.956;2023-03-22T12:07:50;100462.22;;;12.40;69.06
64298;BME280;50639;53.270;7.956;2023-03-22T12:10:22;100437.53;;;12.25;68.37
64298;BME280;50639;53.270;7.956;2023-03-22T12:12:55;100470.59;;;12.50;68.92
64298;BME280;50639;53.270;7.956;2023-03-22T12:15:34;100468.50;;;12.59;68.23
64298;BME280;50639;53.270;7.956;2023-03-22T12:18:11;100475.06;;;12.69;68.01
64298;BME280;50639;53.270;7.956;2023-03-22T12:20:48;100444.63;;;12.57;67.79
64298;BME280;50639;53.270;7.956;2023-03-22T12:23:25;100453.84;;;12.68;67.79
64298;BME280;50639;53.270;7.956;2023-03-22T12:28:51;100443.66;;;12.90;67.10
64298;BME280;50639;53.270;7.956;2023-03-22T12:31:20;100437.03;;;12.92;66.32
64298;BME280;50639;53.270;7.956;2023-03-22T12:33:53;100434.06;;;13.07;66.75
64298;BME280;50639;53.270;7.956;2023-03-22T12:36:37;100425.03;;;12.95;67.58
64298;BME280;50639;53.270;7.956;2023-03-22T12:39:08;100419.19;;;12.73;66.15
64298;BME280;50639;53.270;7.956;2023-03-22T12:41:43;100410.84;;;12.56;64.99
64298;BME280;50639;53.270;7.956;2023-03-22T12:44:18;100441.28;;;12.68;66.29
64298;BME280;50639;53.270;7.956;2023-03-22T12:46:58;100431.59;;;12.67;66.38
64298;BME280;50639;53.270;7.956;2023-03-22T12:55:01;100433.41;;;12.29;67.11
64298;BME280;50639;53.270;7.956;2023-03-22T12:57:39;100467.38;;;12.35;67.19
64298;BME280;50639;53.270;7.956;2023-03-22T13:00:19;100461.00;;;12.29;67.71
64298;BME280;50639;53.270;7.956;2023-03-22T13:03:06;100450.91;;;12.25;67.68
64298;BME280;50639;53.270;7.956;2023-03-22T13:05:44;100444.75;;;12.18;68.44
64298;BME280;50639;53.270;7.956;2023-03-22T13:08:10;100460.25;;;12.02;69.18
64298;BME280;50639;53.270;7.956;2023-03-22T13:10:59;100486.97;;;12.22;69.33
64298;BME280;50639;53.270;7.956;2023-03-22T13:16:22;100493.56;;;12.20;69.21
64298;BME280;50639;53.270;7.956;2023-03-22T13:21:25;100499.53;;;12.15;69.35
64298;BME280;50639;53.270;7.956;2023-03-22T13:26:30;100449.09;;;12.05;69.75
64298;BME280;50639;53.270;7.956;2023-03-22T13:28:59;100468.03;;;12.17;69.43
64298;BME280;50639;53.270;7.956;2023-03-22T13:31:58;100453.84;;;12.03;69.71
64298;BME280;50639;53.270;7.956;2023-03-22T13:34:47;100467.03;;;12.12;70.61
64298;BME280;50639;53.270;7.956;2023-03-22T13:37:36;100456.31;;;12.05;71.78
64298;BME280;50639;53.270;7.956;2023-03-22T13:42:49;100473.03;;;11.94;72.62
64298;BME280;50639;53.270;7.956;2023-03-22T13:45:34;100474.84;;;12.00;72.91
64298;BME280;50639;53.270;7.956;2023-03-22T14:04:49;100491.34;;;12.03;72.17
64298;BME280;50639;53.270;7.956;2023-03-22T14:07:59;100485.56;;;12.00;72.60
64298;BME280;50639;53.270;7.956;2023-03-22T14:10:45;100475.47;;;11.89;72.77
64298;BME280;50639;53.270;7.956;2023-03-22T14:13:35;100468.91;;;11.78;73.92
64298;BME280;50639;53.270;7.956;2023-03-22T14:16:08;100475.31;;;11.77;73.79
64298;BME280;50639;53.270;7.956;2023-03-22T14:18:41;100474.03;;;11.80;75.04
64298;BME280;50639;53.270;7.956;2023-03-22T14:21:36;100503.91;;;11.83;74.86
64298;BME280;50639;53.270;7.956;2023-03-22T14:24:21;100460.66;;;11.60;75.49
64298;BME280;50639;53.270;7.956;2023-03-22T14:27:16;100460.00;;;11.45;75.67
64298;BME280;50639;53.270;7.956;2023-03-22T14:30:34;100488.03;;;11.68;76.19